createdAt,value
2023-02-17T00:05:42.566Z,88.06
2023-02-17T00:15:46.351Z,88.03
2023-02-17T00:25:50.594Z,88.59
2023-02-17T00:35:53.661Z,87.97
2023-02-17T00:45:58.566Z,87.87
2023-02-17T00:56:01.998Z,88.29
2023-02-17T01:06:09.892Z,88.63
2023-02-17T01:16:18.868Z,88.25
2023-02-17T01:26:25.523Z,88.35
2023-02-17T01:36:30.380Z,88.87
2023-02-17T01:46:36.257Z,87.96
2023-02-17T02:08:24.382Z,87.98
2023-02-17T02:18:45.230Z,88.08
2023-02-17T02:29:09.085Z,87.53
2023-02-17T02:39:17.668Z,87.43
2023-02-17T02:49:20.942Z,87.51
2023-02-17T02:59:35.251Z,87.66
2023-02-17T03:09:39.186Z,87.41
2023-02-17T03:19:45.843Z,86.11
2023-02-17T03:29:49.206Z,85.32
2023-02-17T03:39:56.542Z,84.93
2023-02-17T03:49:59.803Z,84.25
2023-02-17T04:00:05.573Z,84.08
2023-02-17T04:10:17.391Z,84.11
2023-02-17T04:20:22.087Z,84.03
2023-02-17T04:30:25.335Z,84.04
2023-02-17T04:40:29.595Z,84.04
2023-02-17T04:50:32.896Z,83.66
2023-02-17T05:00:37.962Z,83.65
2023-02-17T05:11:06.448Z,83.47
2023-02-17T05:21:10.942Z,82.97
2023-02-17T05:31:14.737Z,83.75
2023-02-17T05:41:20.412Z,83.07
2023-02-17T05:51:23.442Z,83.05
2023-02-17T06:01:28.633Z,82.28
2023-02-17T06:11:31.900Z,82.17
2023-02-17T06:21:36.642Z,82.25
2023-02-17T06:31:40.215Z,82.56
2023-02-17T06:41:44.764Z,83.47
2023-02-17T06:51:48.180Z,85.05
2023-02-17T07:01:54.549Z,85.12
2023-02-17T07:11:59.002Z,85.73
2023-02-17T07:22:03.821Z,86.09
2023-02-17T07:32:08.088Z,86.19
2023-02-17T07:52:43.406Z,86.93
2023-02-17T08:02:47.068Z,87.79
2023-02-17T08:13:05.662Z,88.16
2023-02-17T08:23:09.551Z,88.07
2023-02-17T08:33:18.037Z,88.09
2023-02-17T08:43:20.962Z,88.30
2023-02-17T08:53:25.526Z,88.15
2023-02-17T09:03:28.660Z,87.53
2023-02-17T09:13:33.356Z,86.88
2023-02-17T09:23:37.538Z,85.62
2023-02-17T09:33:42.828Z,84.00
2023-02-17T09:43:46.769Z,83.75
2023-02-17T09:53:58.717Z,82.39
2023-02-17T10:04:11.617Z,81.29
2023-02-17T10:14:20.254Z,80.25
2023-02-17T10:24:23.316Z,77.93
2023-02-17T10:34:37.492Z,76.70
2023-02-17T10:44:40.677Z,75.18
2023-02-17T10:54:51.440Z,75.40
2023-02-17T11:04:55.561Z,73.66
2023-02-17T11:15:04.362Z,73.34
2023-02-17T11:25:21.969Z,73.58
2023-02-17T11:35:46.109Z,73.77
2023-02-17T11:46:00.687Z,73.40
2023-02-17T11:56:15.470Z,73.16
2023-02-17T12:06:23.873Z,73.36
2023-02-17T12:16:41.239Z,72.93
2023-02-17T12:26:47.255Z,72.30
2023-02-17T12:36:53.350Z,70.21
2023-02-17T12:46:59.879Z,68.65
2023-02-17T12:57:14.672Z,67.97
2023-02-17T13:07:42.033Z,65.92
2023-02-17T13:17:56.527Z,64.93
2023-02-17T13:28:01.288Z,63.21
2023-02-17T13:38:06.524Z,63.33
2023-02-17T13:48:15.160Z,62.35
2023-02-17T13:58:25.533Z,62.23
2023-02-17T14:08:34.830Z,62.50
2023-02-17T14:18:42.790Z,62.86
2023-02-17T14:28:53.714Z,63.14
2023-02-17T14:38:59.348Z,63.56
2023-02-17T14:49:03.493Z,64.19
2023-02-17T14:59:07.842Z,64.65
2023-02-17T15:09:13.582Z,64.83
2023-02-17T15:19:18.174Z,65.81
2023-02-17T15:29:23.026Z,65.98
2023-02-17T15:39:27.195Z,66.44
2023-02-17T15:49:30.138Z,67.37
2023-02-17T15:59:38.120Z,67.80
2023-02-17T16:09:41.169Z,69.90
2023-02-17T16:19:45.557Z,70.97
2023-02-17T16:29:48.560Z,71.42
2023-02-17T16:39:52.940Z,71.75
2023-02-17T16:49:55.898Z,72.68
2023-02-17T17:00:00.373Z,75.30
2023-02-17T17:10:19.200Z,79.41
2023-02-17T17:20:28.064Z,81.49
2023-02-17T17:30:35.755Z,88.66
2023-02-17T17:40:49.202Z,94.70
2023-02-17T17:50:52.176Z,94.80
2023-02-17T18:00:56.700Z,95.65
2023-02-17T18:11:00.202Z,94.42
2023-02-17T18:21:04.469Z,93.97
2023-02-17T18:31:08.347Z,93.18
2023-02-17T18:41:20.295Z,92.14
2023-02-17T18:51:24.345Z,91.56
2023-02-17T19:01:32.088Z,90.00
2023-02-17T19:11:36.015Z,88.34
2023-02-17T19:21:40.483Z,87.53
2023-02-17T19:31:43.636Z,87.30
2023-02-17T19:41:48.206Z,87.11
2023-02-17T19:51:51.574Z,86.82
2023-02-17T20:01:55.956Z,86.85
2023-02-17T20:11:59.343Z,86.51
2023-02-17T20:22:04.180Z,83.59
2023-02-17T20:32:07.323Z,85.00
2023-02-17T20:42:11.755Z,85.68
2023-02-17T20:52:14.840Z,85.40
2023-02-17T21:02:19.760Z,84.59
2023-02-17T21:12:23.223Z,84.92
2023-02-17T21:22:27.773Z,85.03
2023-02-17T21:32:31.388Z,84.84
2023-02-17T21:42:52.118Z,85.90
2023-02-17T21:52:55.260Z,86.47
2023-02-17T22:02:59.987Z,85.38
2023-02-17T22:13:03.480Z,86.05
2023-02-17T22:23:07.969Z,84.55
2023-02-17T22:33:11.565Z,85.12
2023-02-17T22:43:16.108Z,85.46
2023-02-17T22:53:19.746Z,86.13
2023-02-17T23:03:24.752Z,85.82
2023-02-17T23:13:27.848Z,85.93
2023-02-17T23:23:32.318Z,86.94
2023-02-17T23:33:35.448Z,86.95
2023-02-17T23:43:39.965Z,87.30
2023-02-17T23:53:42.940Z,87.49
